Carbon, Texas
Current Conditions -  °F | °C
As of 12:15 PM on Tuesday 21 Oct 2014 (Local Time) from KMKN Reporting Station
Clear Clear  
Wind Chill: 76°   Ceiling: Unl
Heat Index: 76°   Visibility: 10mi
Dew Point: 60°   Wind: 6mph
Humidity: 58%   Direction: 120°ESE
Pressure: 30.12"   Gusts: NA
Location:  32.27°N, 98.83°W
Report Text: KMKN 211715Z AUTO 12005KT 10SM CLR 24/16 A3012 RMK AO2 T02430155
Loading
Personal Weather Stations






























Interactive Weather Map
Tropical Storm Tracking
New forecast layout! Learn more

10-Day Weather Forecast

Advertisements
Track Severe Weather on mobile